Terminal Aerodrome Forecast
Issued by NWS

Home | Current Version | Previous Version | Graphics & Text | Print | Product List | Glossary On
Versions: 1 2 3 4 5 6 7 8 9 10 11 12 13 14 15 16
000
FTUS43 KOAX 230319 AAB
TAFCDR
TAF AMD
KCDR 230319Z 2303/2324 36012KT 3SM -SN BKN020 OVC030
      TEMPO 2303/2306 1/2SM SN BKN005 OVC012
     FM230600 32018G30KT 1SM -SN BLSN SCT007 OVC015
     FM231300 33025G35KT 4SM BLSN VCSH SCT007 OVC015
     FM232000 33017G29KT P6SM OVC050=

USA.gov is the U.S. government's official web portal to all federal, state and local government web resources and services.